aviador You're here:

LJMB Decoded Metar

MARIBOR in SLOVENIA
Report Time2017-08-18 04:30:00
UTC Time2017-08-18 04:45:19
Flight Rules vfr VFR
Wind360° at 02 kt
W.Decomp.*RWY 32: 1.6 kt HW 1.2 kt RCW
Visibility9999 m
Phenomena:N/A
Clouds:N/A
Expected CloudBase > 400 ft AGL from Temp-Dew spread
CeilingNone
Temp16°C (ISA +3)
Dew Point15°C (94% RH)
QNH1019 hPa
Density Alt1,220 ft
Elevation869 ft
Report Wrong Elevation
Raw Report
LJMB 180430Z 36002KT CAVOK 16/15 Q1019=

Extra information for LJMB:More info

Metar Taf Metar & Taf Last 4 Metars F.Rules Stats Wind Profile Meteogram Temp Stats Airport Information Weather charts Add Link Nearby VenuesMetar ALERT Operation Metar Decoded Social comments